Standish, Michigan
Current Conditions -  °F | °C
As of 6:54 AM on Saturday 22 Nov 2014 (Local Time) from KIKW Reporting Station
Overcast Overcast  
Wind Chill: -5°   Ceiling: 2300
Heat Index: -1°   Visibility: 10mi
Dew Point: -6°   Wind: 8mph
Humidity: 68%   Direction: 200°SSW
Pressure: 30.03"   Gusts: NA
Location:  43.98°N, 83.96°W
Report Text: KIKW 221154Z AUTO 20007KT 10SM OVC023 M01/M06 A3003 RMK AO2 T10061058
Loading
Personal Weather Stations






























Interactive Weather Map New forecast layout! Learn more

10-Day Weather Forecast

Advertisements
Track Severe Weather on mobile